Time;durP1;ratioP1;P1;durP2;ratioP2;P2;SDS_P1;SDS_P2;PMS_P1;PMS_P2;Temp;Humidity;BMP_temperature;BMP_pressure;BME280_temperature;BME280_humidity;BME280_pressure;Samples;Min_cycle;Max_cycle;Signal;HPM_P1;HPM_P2
2023/09/26 00:02:29;;;;;;;18.98;7.15;;;;;;;23.08;31.45;101045.76;1765930;79;21361;-86
2023/09/26 00:05:35;;;;;;;13.38;7.15;;;;;;;22.88;31.81;101049.41;1766179;79;21325;-87
2023/09/26 00:08:41;;;;;;;16.82;7.03;;;;;;;22.94;31.86;101044.29;1765971;79;21351;-85
2023/09/26 00:11:47;;;;;;;22.05;6.40;;;;;;;22.88;31.97;101042.44;1757901;81;21321;-86
2023/09/26 00:14:52;;;;;;;15.45;6.42;;;;;;;22.88;31.96;101039.64;1758258;79;22001;-86
2023/09/26 00:17:58;;;;;;;19.23;6.70;;;;;;;22.86;31.92;101035.68;1758405;79;21329;-86
2023/09/26 00:21:04;;;;;;;18.42;6.42;;;;;;;22.89;31.91;101043.61;1759375;79;21321;-86
2023/09/26 00:24:09;;;;;;;18.15;7.03;;;;;;;22.87;32.07;101037.41;1758264;79;21313;-87
2023/09/26 00:27:17;;;;;;;21.00;7.12;;;;;;;22.82;32.23;101043.37;1758907;79;21337;-87
2023/09/26 00:30:24;;;;;;;15.38;7.47;;;;;;;22.73;32.48;101043.44;1759175;80;21353;-86
2023/09/26 00:33:29;;;;;;;18.35;7.42;;;;;;;22.79;32.81;101042.48;1760016;79;21329;-87
2023/09/26 00:36:35;;;;;;;15.60;7.78;;;;;;;22.74;33.26;101040.41;1754516;79;21975;-86
2023/09/26 00:39:42;;;;;;;14.95;7.70;;;;;;;22.66;33.57;101038.80;1758852;79;21426;-86
2023/09/26 00:42:50;;;;;;;20.90;7.28;;;;;;;22.66;33.57;101042.98;1757723;81;21348;-87
2023/09/26 00:45:59;;;;;;;21.35;8.18;;;;;;;22.57;33.70;101043.02;1766372;79;21351;-87
2023/09/26 00:49:04;;;;;;;16.60;7.37;;;;;;;22.21;34.24;101048.17;1766446;79;21330;-87
2023/09/26 00:52:09;;;;;;;20.20;8.10;;;;;;;22.34;34.17;101049.90;1757186;81;21345;-87
2023/09/26 00:55:16;;;;;;;14.98;7.67;;;;;;;22.48;33.97;101047.23;1766655;80;21305;-87
2023/09/26 00:58:23;;;;;;;15.60;8.13;;;;;;;22.35;34.08;101055.80;1756899;79;21320;-87
2023/09/26 01:01:31;;;;;;;30.20;8.65;;;;;;;22.25;34.25;101059.67;1758659;79;21925;-87
2023/09/26 01:04:37;;;;;;;22.22;8.43;;;;;;;22.21;34.29;101053.75;1746978;81;21938;-87
2023/09/26 01:07:43;;;;;;;14.87;8.75;;;;;;;22.23;34.21;101055.74;1749187;81;21934;-87
2023/09/26 01:10:49;;;;;;;25.08;8.58;;;;;;;22.20;34.22;101058.98;1748890;80;22035;-86
2023/09/26 01:13:56;;;;;;;20.05;6.97;;;;;;;22.11;34.29;101054.30;1749338;80;21940;-86
2023/09/26 01:17:04;;;;;;;14.53;7.45;;;;;;;22.02;34.40;101058.46;1759902;80;21963;-87
2023/09/26 01:20:15;;;;;;;25.77;8.80;;;;;;;21.88;34.62;101060.56;1761792;79;21374;-86
2023/09/26 01:23:21;;;;;;;18.80;8.40;;;;;;;21.83;34.69;101063.20;1734971;81;21362;-86
2023/09/26 01:26:27;;;;;;;21.52;8.40;;;;;;;21.71;35.00;101062.80;1762117;79;21336;-87
2023/09/26 01:29:32;;;;;;;14.13;7.85;;;;;;;21.88;34.71;101072.25;1769247;79;21329;-87
2023/09/26 01:32:37;;;;;;;22.07;8.30;;;;;;;21.83;34.78;101061.80;1756245;79;21349;-87
2023/09/26 01:35:43;;;;;;;16.07;8.10;;;;;;;21.82;34.79;101068.98;1776670;80;22272;-86
2023/09/26 01:38:49;;;;;;;19.07;8.48;;;;;;;21.78;35.05;101063.56;1768793;79;22522;-86
2023/09/26 01:41:54;;;;;;;19.02;8.90;;;;;;;21.73;35.21;101064.80;1772094;79;21959;-86
2023/09/26 01:45:01;;;;;;;21.20;8.35;;;;;;;21.69;35.34;101065.28;1757714;79;21368;-87
2023/09/26 01:48:09;;;;;;;21.42;8.63;;;;;;;21.68;35.33;101070.52;1749484;81;21967;-89
2023/09/26 01:51:14;;;;;;;22.80;9.23;;;;;;;21.84;35.24;101069.61;1759122;79;21346;-86
2023/09/26 01:54:20;;;;;;;20.52;8.63;;;;;;;21.58;35.64;101066.03;1752424;79;22312;-86
2023/09/26 01:57:26;;;;;;;22.93;9.85;;;;;;;21.64;35.63;101066.52;1776292;80;21966;-87
2023/09/26 02:00:34;;;;;;;22.40;8.13;;;;;;;21.77;35.45;101070.22;1764394;80;21325;-87
2023/09/26 02:03:39;;;;;;;18.55;7.70;;;;;;;21.59;35.68;101064.94;1757329;79;21348;-86
2023/09/26 02:06:46;;;;;;;15.10;8.03;;;;;;;21.53;35.75;101067.27;1760620;81;21313;-87
2023/09/26 02:09:52;;;;;;;25.10;8.28;;;;;;;21.55;35.75;101067.02;1759157;79;21321;-87
2023/09/26 02:12:59;;;;;;;16.73;7.25;;;;;;;21.78;35.52;101070.52;1759380;81;21690;-87
2023/09/26 02:16:04;;;;;;;22.32;7.83;;;;;;;21.78;35.42;101070.52;1758756;79;21316;-86
2023/09/26 02:19:10;;;;;;;22.37;8.30;;;;;;;21.84;35.30;101066.83;1758609;80;21329;-86
2023/09/26 02:22:16;;;;;;;19.62;7.50;;;;;;;21.90;35.15;101070.91;1758530;79;21325;-87
2023/09/26 02:25:23;;;;;;;17.07;6.72;;;;;;;21.77;35.17;101066.04;1771835;80;21344;-87
2023/09/26 02:28:31;;;;;;;21.80;8.15;;;;;;;21.77;35.07;101067.43;1766845;79;21322;-87
2023/09/26 02:31:36;;;;;;;13.75;6.05;;;;;;;21.82;34.80;101068.98;1762161;79;21329;-87
2023/09/26 02:34:43;;;;;;;22.00;6.45;;;;;;;21.62;34.97;101068.66;1759411;79;21318;-85
2023/09/26 02:37:49;;;;;;;14.65;6.72;;;;;;;21.49;35.11;101070.73;1759197;81;22251;-85
2023/09/26 02:44:03;;;;;;;24.35;7.12;;;;;;;21.46;34.99;101066.50;1749455;79;22179;-86
2023/09/26 02:47:08;;;;;;;16.10;7.08;;;;;;;21.48;34.89;101074.06;1731226;81;21381;-86
2023/09/26 02:50:15;;;;;;;16.80;6.83;;;;;;;21.58;34.77;101072.98;1766916;79;21336;-86
2023/09/26 02:53:20;;;;;;;14.73;7.35;;;;;;;21.58;34.79;101072.98;1755577;79;21333;-86
2023/09/26 02:56:25;;;;;;;22.00;6.55;;;;;;;21.76;34.59;101074.09;1759545;79;21714;-87
2023/09/26 02:59:31;;;;;;;15.30;6.33;;;;;;;21.63;34.75;101066.19;1752322;79;21325;-86
2023/09/26 03:02:36;;;;;;;13.15;5.90;;;;;;;21.61;34.86;101061.41;1758769;79;21356;-86
2023/09/26 03:05:42;;;;;;;21.62;6.33;;;;;;;21.66;34.89;101067.67;1767628;80;21306;-86
2023/09/26 03:08:47;;;;;;;13.70;6.37;;;;;;;21.66;34.93;101071.30;1758982;79;21683;-86
2023/09/26 03:11:54;;;;;;;21.82;7.08;;;;;;;21.71;34.92;101065.58;1756461;81;21552;-86
2023/09/26 03:15:00;;;;;;;21.48;7.70;;;;;;;21.63;35.07;101067.58;1758039;79;21341;-86
2023/09/26 03:18:06;;;;;;;18.00;6.37;;;;;;;21.50;35.35;101076.09;1755448;80;21915;-86
2023/09/26 03:21:11;;;;;;;11.10;6.00;;;;;;;21.53;35.43;101073.38;1758783;79;21364;-87
2023/09/26 03:24:17;;;;;;;16.52;6.45;;;;;;;21.43;35.62;101073.91;1768756;80;22759;-87
2023/09/26 03:27:22;;;;;;;20.35;6.10;;;;;;;21.40;35.83;101078.52;1758442;81;21298;-86
2023/09/26 03:30:28;;;;;;;17.05;7.28;;;;;;;20.91;36.68;101081.61;1769595;80;21354;-86
2023/09/26 03:33:35;;;;;;;35.70;6.90;;;;;;;20.93;36.81;101085.00;1763768;79;21933;-87
2023/09/26 03:36:42;;;;;;;16.07;6.33;;;;;;;21.00;36.72;101089.98;1756553;79;21955;-86
2023/09/26 03:39:49;;;;;;;17.15;6.47;;;;;;;20.95;36.88;101092.60;1769485;80;21341;-87
2023/09/26 03:42:54;;;;;;;14.93;5.60;;;;;;;20.90;37.12;101096.60;1757993;79;23149;-87
2023/09/26 03:46:02;;;;;;;11.33;5.72;;;;;;;20.89;37.25;101095.75;1771666;80;21325;-86
2023/09/26 03:49:08;;;;;;;13.08;6.62;;;;;;;20.87;37.31;101100.67;1736175;80;21333;-87
2023/09/26 03:52:15;;;;;;;19.05;6.00;;;;;;;20.81;37.65;101103.51;1769717;80;21749;-86
2023/09/26 03:55:21;;;;;;;19.32;6.45;;;;;;;20.89;37.62;101114.37;1758031;81;21936;-85
2023/09/26 03:58:27;;;;;;;19.00;6.37;;;;;;;20.75;37.92;101117.77;1758911;80;21321;-85
2023/09/26 04:01:33;;;;;;;15.83;6.28;;;;;;;20.75;38.10;101121.06;1766938;80;21376;-86
2023/09/26 04:04:39;;;;;;;20.02;6.00;;;;;;;20.89;37.84;101124.95;1765266;80;21386;-86
2023/09/26 04:07:46;;;;;;;18.20;6.20;;;;;;;21.06;37.70;101128.55;1756189;80;21348;-86
2023/09/26 04:10:52;;;;;;;17.75;6.47;;;;;;;21.04;37.79;101135.74;1757200;79;21293;-86
2023/09/26 04:13:59;;;;;;;18.75;6.30;;;;;;;20.97;37.95;101134.92;1757339;80;21353;-86
2023/09/26 04:17:03;;;;;;;13.80;6.25;;;;;;;21.26;37.64;101140.91;1758967;79;21883;-86
2023/09/26 04:20:12;;;;;;;22.25;7.22;;;;;;;21.31;37.54;101137.78;1757881;81;21309;-87
2023/09/26 04:23:20;;;;;;;17.17;5.85;;;;;;;21.32;37.49;101146.47;1761419;79;21923;-87
2023/09/26 04:26:27;;;;;;;16.12;6.05;;;;;;;21.58;37.09;101143.97;1767233;79;21332;-86
2023/09/26 04:29:32;;;;;;;20.72;6.37;;;;;;;21.54;37.15;101149.67;1757620;79;21359;-86
2023/09/26 04:32:37;;;;;;;12.93;6.15;;;;;;;21.71;37.00;101157.46;1758569;79;21359;-86
2023/09/26 04:35:43;;;;;;;11.80;5.97;;;;;;;21.85;36.85;101147.34;1760423;79;21912;-86
2023/09/26 04:38:48;;;;;;;9.90;5.37;;;;;;;21.93;36.84;101153.16;1758336;79;21332;-86
2023/09/26 04:41:55;;;;;;;11.00;5.83;;;;;;;22.05;36.73;101156.02;1760412;81;21321;-86
2023/09/26 04:45:00;;;;;;;19.02;5.78;;;;;;;22.11;36.64;101158.78;1759332;79;21381;-86
2023/09/26 04:48:09;;;;;;;14.70;5.22;;;;;;;22.10;36.74;101151.45;1753624;80;21338;-87
2023/09/26 04:51:16;;;;;;;18.37;6.25;;;;;;;22.25;36.71;101158.59;1751495;81;21603;-86
2023/09/26 04:54:21;;;;;;;19.55;5.92;;;;;;;22.35;36.68;101158.38;1772119;80;21897;-86
2023/09/26 04:57:27;;;;;;;9.18;4.97;;;;;;;22.66;36.33;101160.09;1761594;79;21334;-86
2023/09/26 05:00:36;;;;;;;11.75;5.95;;;;;;;22.47;36.67;101163.16;1758495;79;21388;-87
2023/09/26 05:03:42;;;;;;;13.90;5.85;;;;;;;22.77;36.21;101158.98;1727783;80;21870;-86
2023/09/26 05:06:49;;;;;;;16.05;5.78;;;;;;;23.05;35.73;101159.77;1721476;82;22027;-86
2023/09/26 05:09:57;;;;;;;15.48;6.15;;;;;;;23.37;35.27;101164.52;1710777;83;21916;-87
2023/09/26 05:13:03;;;;;;;10.20;5.20;;;;;;;23.25;35.50;101156.69;1717294;83;21283;-86
2023/09/26 05:16:08;;;;;;;15.72;5.92;;;;;;;23.30;35.75;101170.77;1713656;83;21370;-86
2023/09/26 05:19:15;;;;;;;17.70;6.70;;;;;;;23.24;35.93;101166.97;1725754;83;21620;-87
2023/09/26 05:22:20;;;;;;;16.32;6.05;;;;;;;23.18;36.04;101168.78;1712198;82;21937;-87
2023/09/26 05:25:25;;;;;;;12.37;6.33;;;;;;;23.44;35.78;101170.85;1707835;83;21358;-87
2023/09/26 05:28:32;;;;;;;15.65;5.50;;;;;;;23.52;35.94;101166.29;1743351;79;21355;-86
2023/09/26 05:31:39;;;;;;;12.63;5.20;;;;;;;23.62;35.75;101166.56;1748799;80;21286;-86
2023/09/26 05:34:46;;;;;;;20.12;6.15;;;;;;;23.81;35.66;101165.09;1758487;79;21325;-87
2023/09/26 05:37:52;;;;;;;18.50;5.40;;;;;;;23.95;35.35;101165.98;1770022;79;21355;-86
2023/09/26 05:40:58;;;;;;;10.48;5.28;;;;;;;24.01;35.02;101168.89;1766911;80;21294;-86
2023/09/26 05:44:04;;;;;;;16.73;5.25;;;;;;;24.25;34.99;101169.70;1759457;79;21326;-87
2023/09/26 05:47:11;;;;;;;11.50;5.08;;;;;;;24.36;34.93;101177.20;1745359;80;21346;-86
2023/09/26 05:50:20;;;;;;;10.50;5.05;;;;;;;24.48;34.51;101171.92;1739525;80;21317;-85
2023/09/26 05:53:26;;;;;;;12.25;5.62;;;;;;;24.70;34.21;101177.69;1736281;81;21734;-87
2023/09/26 05:56:34;;;;;;;15.40;6.20;;;;;;;24.74;34.12;101173.27;1755117;80;21352;-84
2023/09/26 05:59:41;;;;;;;16.02;5.72;;;;;;;24.96;33.74;101174.83;1700163;81;21301;-86
2023/09/26 06:02:51;;;;;;;19.37;4.85;;;;;;;25.11;33.66;101172.05;1765878;79;21270;-88
